createdAt,value
2022-10-17T00:00:18.008Z,94901.50
2022-10-17T00:02:44.971Z,94901.91
2022-10-17T00:05:12.212Z,94906.22
2022-10-17T00:07:39.031Z,94901.81
2022-10-17T00:10:07.865Z,94902.03
2022-10-17T00:12:35.573Z,94902.41
2022-10-17T00:15:07.299Z,94911.38
2022-10-17T00:17:34.498Z,94909.16
2022-10-17T00:20:01.908Z,94908.03
2022-10-17T00:22:28.804Z,94908.94
2022-10-17T00:24:55.588Z,94908.84
2022-10-17T00:27:22.348Z,94905.69
2022-10-17T00:29:50.943Z,94907.63
2022-10-17T00:32:18.972Z,94905.06
2022-10-17T00:34:46.522Z,94904.66
2022-10-17T00:37:13.277Z,94904.75
2022-10-17T00:39:39.987Z,94912.19
2022-10-17T00:42:06.810Z,94920.31
2022-10-17T00:44:33.511Z,94911.44
2022-10-17T00:47:10.524Z,94917.66
2022-10-17T00:49:39.021Z,94915.94
2022-10-17T00:52:11.996Z,94919.47
2022-10-17T00:54:42.945Z,94921.13
2022-10-17T00:57:09.998Z,94915.13
2022-10-17T00:59:38.539Z,94919.91
2022-10-17T01:02:13.568Z,94920.81
2022-10-17T01:04:42.211Z,94913.38
2022-10-17T01:07:09.772Z,94918.56
2022-10-17T01:09:37.310Z,94909.91
2022-10-17T01:12:52.146Z,94915.28
2022-10-17T01:15:28.116Z,94912.03
2022-10-17T01:18:05.012Z,94907.94
2022-10-17T01:20:59.828Z,94911.44
2022-10-17T01:23:38.665Z,94911.00
2022-10-17T01:26:42.428Z,94912.34
2022-10-17T01:29:18.452Z,94914.47
2022-10-17T01:31:52.972Z,94911.44
2022-10-17T01:34:33.486Z,94914.78
2022-10-17T01:37:14.735Z,94910.78
2022-10-17T01:40:21.560Z,94907.94
2022-10-17T01:43:07.134Z,94903.88
2022-10-17T01:45:38.748Z,94920.69
2022-10-17T01:48:11.914Z,94916.41
2022-10-17T01:50:42.559Z,94919.25
2022-10-17T01:53:16.755Z,94921.47
2022-10-17T01:55:45.833Z,94922.47
2022-10-17T01:58:27.048Z,94923.31
2022-10-17T02:00:54.927Z,94927.03
2022-10-17T02:03:22.074Z,94924.50
2022-10-17T02:05:48.843Z,94920.22
2022-10-17T02:08:28.543Z,94928.97
2022-10-17T02:11:03.761Z,94928.44
2022-10-17T02:13:55.240Z,94926.47
2022-10-17T02:16:47.355Z,94930.94
2022-10-17T02:19:52.478Z,94936.06
2022-10-17T02:22:34.931Z,94932.97
2022-10-17T02:25:07.709Z,94927.63
2022-10-17T02:27:34.839Z,94936.53
2022-10-17T02:30:32.451Z,94935.44
2022-10-17T02:33:06.487Z,94938.19
2022-10-17T02:35:36.603Z,94940.00
2022-10-17T02:38:05.683Z,94944.28
2022-10-17T02:40:32.484Z,94941.56
2022-10-17T02:43:01.004Z,94949.91
2022-10-17T02:45:30.210Z,94952.91
2022-10-17T02:47:57.267Z,94950.66
2022-10-17T02:53:09.455Z,94962.47
2022-10-17T02:55:40.453Z,94963.09
2022-10-17T02:58:10.888Z,94962.28
2022-10-17T03:00:40.882Z,94960.56
2022-10-17T03:03:30.820Z,94970.81
2022-10-17T03:06:01.194Z,94967.38
2022-10-17T03:08:28.110Z,94966.13
2022-10-17T03:10:56.096Z,94973.09
2022-10-17T03:13:23.284Z,94967.59
2022-10-17T03:15:50.482Z,94977.22
2022-10-17T03:18:17.219Z,94970.91
2022-10-17T03:20:45.079Z,94976.47
2022-10-17T03:23:11.845Z,94974.91
2022-10-17T03:25:38.762Z,94976.75
2022-10-17T03:28:05.782Z,94983.28
2022-10-17T03:30:33.610Z,94972.22
2022-10-17T03:33:00.880Z,94977.03
2022-10-17T03:35:27.889Z,94979.09
2022-10-17T03:37:58.163Z,94975.91
2022-10-17T03:40:26.925Z,94974.19
2022-10-17T03:42:54.229Z,94978.53
2022-10-17T03:45:21.024Z,94980.09
2022-10-17T03:47:48.430Z,94986.00
2022-10-17T03:50:15.644Z,94985.91
2022-10-17T03:52:47.284Z,94988.28
2022-10-17T03:55:14.670Z,94991.09
2022-10-17T03:57:43.422Z,94998.97
2022-10-17T04:00:13.262Z,94995.72
2022-10-17T04:02:48.883Z,94989.44
2022-10-17T04:05:18.666Z,94991.03
2022-10-17T04:07:46.175Z,94993.22
2022-10-17T04:10:14.713Z,94993.78
2022-10-17T04:12:41.931Z,94996.88
2022-10-17T04:15:09.553Z,94990.16
2022-10-17T04:17:38.322Z,94993.44
2022-10-17T04:20:07.174Z,95000.31
2022-10-17T04:22:34.760Z,95003.59
2022-10-17T04:25:01.741Z,95000.31
2022-10-17T04:27:34.635Z,95007.13
2022-10-17T04:30:01.567Z,95003.75
2022-10-17T04:32:30.988Z,95004.56
2022-10-17T04:35:04.987Z,95001.44
2022-10-17T04:37:32.376Z,95002.31
2022-10-17T04:40:02.500Z,95005.72
2022-10-17T04:42:32.316Z,95003.91
2022-10-17T04:44:59.639Z,95003.84
2022-10-17T04:47:27.204Z,94998.50
2022-10-17T04:49:57.738Z,95002.50
2022-10-17T04:52:25.313Z,95006.97
2022-10-17T04:54:53.017Z,95011.69
2022-10-17T04:57:21.284Z,95008.97
2022-10-17T04:59:58.779Z,95025.59
2022-10-17T05:02:48.232Z,95025.47
2022-10-17T05:05:15.679Z,95030.13
2022-10-17T05:07:44.475Z,95029.75
2022-10-17T05:10:14.341Z,95031.31
2022-10-17T05:12:44.526Z,95030.97
2022-10-17T05:15:12.610Z,95026.72
2022-10-17T05:17:40.367Z,95029.97
2022-10-17T05:20:08.243Z,95035.88
2022-10-17T05:22:38.349Z,95040.31
2022-10-17T05:25:08.751Z,95047.44
2022-10-17T05:27:35.595Z,95051.16
2022-10-17T05:30:02.649Z,95046.00
2022-10-17T05:32:33.595Z,95055.38
2022-10-17T05:35:01.127Z,95050.91
2022-10-17T05:37:29.700Z,95053.66
2022-10-17T05:39:57.309Z,95054.84
2022-10-17T05:42:25.263Z,95063.84
2022-10-17T05:44:52.095Z,95059.22
2022-10-17T05:47:19.752Z,95062.66
2022-10-17T05:49:51.442Z,95060.72
2022-10-17T05:52:23.992Z,95059.09
2022-10-17T05:55:07.210Z,95059.34
2022-10-17T05:57:33.963Z,95060.94
2022-10-17T06:00:01.733Z,95061.72
2022-10-17T06:02:41.043Z,95066.28
2022-10-17T06:05:08.947Z,95074.69
2022-10-17T06:07:36.094Z,95071.06
2022-10-17T06:10:04.054Z,95077.56
2022-10-17T06:12:31.071Z,95082.28
2022-10-17T06:14:59.227Z,95081.34
2022-10-17T06:17:26.474Z,95079.03
2022-10-17T06:19:53.228Z,95088.94
2022-10-17T06:22:20.110Z,95088.50
2022-10-17T06:24:46.878Z,95096.44
2022-10-17T06:27:14.596Z,95096.31
2022-10-17T06:29:41.761Z,95102.19
2022-10-17T06:32:11.306Z,95100.94
2022-10-17T06:34:42.096Z,95107.31
2022-10-17T06:37:09.654Z,95109.59
2022-10-17T06:39:38.214Z,95111.16
2022-10-17T06:42:09.896Z,95118.66
2022-10-17T06:45:02.010Z,95117.16
2022-10-17T06:47:37.808Z,95120.00
2022-10-17T06:50:27.464Z,95116.63
2022-10-17T06:53:14.522Z,95118.63
2022-10-17T06:56:04.231Z,95120.97
2022-10-17T06:58:50.888Z,95116.28
2022-10-17T07:01:46.265Z,95117.66
2022-10-17T07:04:14.688Z,95111.06
2022-10-17T07:06:41.583Z,95106.91
2022-10-17T07:09:15.058Z,95106.47
2022-10-17T07:11:42.221Z,95101.78
2022-10-17T07:14:08.998Z,95114.63
2022-10-17T07:16:35.944Z,95108.81
2022-10-17T07:19:09.111Z,95114.34
2022-10-17T07:21:39.369Z,95112.38
2022-10-17T07:24:07.905Z,95106.88
2022-10-17T07:26:34.867Z,95114.25
2022-10-17T07:29:02.481Z,95116.31
2022-10-17T07:31:37.162Z,95121.19
2022-10-17T07:34:03.960Z,95121.84
2022-10-17T07:36:30.744Z,95116.66
2022-10-17T07:38:59.330Z,95120.13
2022-10-17T07:41:26.874Z,95121.28
2022-10-17T07:43:53.943Z,95124.41
2022-10-17T07:46:25.696Z,95123.03
2022-10-17T07:48:52.580Z,95126.56
2022-10-17T07:51:22.085Z,95119.84
2022-10-17T07:53:49.059Z,95121.84
2022-10-17T07:56:16.257Z,95127.44
2022-10-17T07:58:43.136Z,95129.91
2022-10-17T08:01:15.408Z,95122.88
2022-10-17T08:03:44.386Z,95122.97
2022-10-17T08:06:11.045Z,95114.06
2022-10-17T08:08:37.847Z,95115.16
2022-10-17T08:11:06.828Z,95108.81
2022-10-17T08:13:34.223Z,95110.66
2022-10-17T08:16:02.196Z,95111.81
2022-10-17T08:18:29.320Z,95105.31
2022-10-17T08:21:00.305Z,95099.88
2022-10-17T08:23:28.162Z,95110.88
2022-10-17T08:25:54.880Z,95101.56
2022-10-17T08:28:21.692Z,95096.91
2022-10-17T08:30:48.603Z,95108.47
2022-10-17T08:33:15.396Z,95102.75
2022-10-17T08:35:42.180Z,95100.38
2022-10-17T08:38:11.075Z,95106.03
2022-10-17T08:40:42.894Z,95107.59
2022-10-17T08:43:30.340Z,95106.38
2022-10-17T08:46:03.248Z,95107.22
2022-10-17T08:48:32.648Z,95105.22
2022-10-17T08:51:00.719Z,95108.84
2022-10-17T08:53:41.924Z,95103.66
2022-10-17T08:56:25.155Z,95098.69
2022-10-17T08:59:06.468Z,95104.84
2022-10-17T09:01:34.437Z,95105.13
2022-10-17T09:04:26.233Z,95105.38
2022-10-17T09:07:11.741Z,95110.31
2022-10-17T09:09:53.757Z,95105.16
2022-10-17T09:12:58.064Z,95112.44
2022-10-17T09:15:43.500Z,95106.28
2022-10-17T09:18:19.816Z,95102.78
2022-10-17T09:20:54.007Z,95109.03
2022-10-17T09:23:32.181Z,95109.25
2022-10-17T09:28:38.407Z,95112.38
2022-10-17T09:31:21.828Z,95106.72
2022-10-17T09:33:54.284Z,95114.78
2022-10-17T09:36:26.393Z,95102.84
2022-10-17T09:38:57.790Z,95103.81
2022-10-17T09:41:44.969Z,95108.28
2022-10-17T09:44:29.472Z,95102.59
2022-10-17T09:47:11.292Z,95099.56
2022-10-17T09:49:40.159Z,95101.50
2022-10-17T09:52:12.530Z,95100.53
2022-10-17T09:54:51.521Z,95099.53
2022-10-17T09:57:19.967Z,95095.09
2022-10-17T10:00:05.544Z,95098.53
2022-10-17T10:02:40.935Z,95086.84
2022-10-17T10:05:25.933Z,95090.81
2022-10-17T10:08:05.157Z,95091.22
2022-10-17T10:10:32.526Z,95088.19
2022-10-17T10:13:14.501Z,95093.69
2022-10-17T10:15:46.917Z,95081.81
2022-10-17T10:21:23.665Z,95077.38
2022-10-17T10:24:04.536Z,95085.09
2022-10-17T10:26:44.297Z,95077.28
2022-10-17T10:29:34.402Z,95073.19
2022-10-17T10:35:42.121Z,95063.91
2022-10-17T10:38:11.360Z,95065.25
2022-10-17T10:40:45.210Z,95056.94
2022-10-17T10:43:23.167Z,95055.75
2022-10-17T10:45:50.186Z,95061.59
2022-10-17T10:48:22.882Z,95060.75
2022-10-17T10:50:49.575Z,95055.06
2022-10-17T10:53:35.568Z,95049.25
2022-10-17T10:56:14.860Z,95044.75
2022-10-17T10:58:43.593Z,95050.03
2022-10-17T11:01:17.665Z,95042.91
2022-10-17T11:04:01.377Z,95035.25
2022-10-17T11:06:31.455Z,95036.28
2022-10-17T11:08:58.193Z,95038.75
2022-10-17T11:11:39.090Z,95032.25
2022-10-17T11:14:32.162Z,95035.66
2022-10-17T11:17:53.539Z,95032.59
2022-10-17T11:20:47.717Z,95034.25
2022-10-17T11:23:19.941Z,95029.97
2022-10-17T11:25:48.639Z,95022.34
2022-10-17T11:28:17.689Z,95018.22
2022-10-17T11:30:48.461Z,95022.16
2022-10-17T11:33:48.386Z,95016.41
2022-10-17T11:36:18.596Z,95018.91
2022-10-17T11:38:47.977Z,95017.44
2022-10-17T11:41:27.800Z,95015.00
2022-10-17T11:44:10.216Z,95001.69
2022-10-17T11:46:37.836Z,95007.31
2022-10-17T11:49:16.206Z,95008.69
2022-10-17T11:52:18.556Z,94997.75
2022-10-17T11:55:00.639Z,94998.44
2022-10-17T11:58:01.591Z,94996.91
2022-10-17T12:00:55.945Z,95001.41
2022-10-17T12:03:44.740Z,95007.25
2022-10-17T12:06:41.624Z,95003.25
2022-10-17T12:09:12.397Z,95001.22
2022-10-17T12:11:55.032Z,94997.69
2022-10-17T12:14:49.810Z,94996.69
2022-10-17T12:17:28.125Z,94996.22
2022-10-17T12:20:17.722Z,94996.66
2022-10-17T12:22:48.764Z,94992.97
2022-10-17T12:25:39.173Z,94995.72
2022-10-17T12:28:22.623Z,94996.88
2022-10-17T12:31:08.812Z,95000.22
2022-10-17T12:33:57.638Z,94997.34
2022-10-17T12:36:34.443Z,94992.41
2022-10-17T12:39:35.200Z,94992.97
2022-10-17T12:42:33.555Z,94989.19
2022-10-17T12:45:44.822Z,94989.75
2022-10-17T12:48:46.009Z,94986.06
2022-10-17T12:51:40.743Z,94985.88
2022-10-17T12:54:16.839Z,94990.91
2022-10-17T12:56:53.312Z,94985.59
2022-10-17T12:59:25.836Z,94983.81
2022-10-17T13:01:58.650Z,94985.06
2022-10-17T13:04:28.157Z,94983.44
2022-10-17T13:07:20.419Z,94984.91
2022-10-17T13:09:50.637Z,94980.31
2022-10-17T13:12:30.245Z,94981.13
2022-10-17T13:14:57.522Z,94978.56
2022-10-17T13:17:31.138Z,94980.31
2022-10-17T13:19:58.685Z,94982.97
2022-10-17T13:22:29.507Z,94980.91
2022-10-17T13:25:08.862Z,94977.66
2022-10-17T13:27:36.642Z,94978.78
2022-10-17T13:30:31.230Z,94979.94
2022-10-17T13:33:01.885Z,94981.44
2022-10-17T13:38:26.677Z,94985.28
2022-10-17T13:41:01.761Z,94982.03
2022-10-17T13:43:40.372Z,94985.41
2022-10-17T13:46:35.718Z,94981.59
2022-10-17T13:48:54.569Z,94987.94
2022-10-17T13:51:22.043Z,94979.22
2022-10-17T13:53:51.142Z,94983.22
2022-10-17T13:56:28.807Z,94983.81
2022-10-17T13:59:05.216Z,94982.31
2022-10-17T14:01:34.567Z,94983.31
2022-10-17T14:04:08.945Z,94985.78
2022-10-17T14:06:47.559Z,94977.25
2022-10-17T14:09:22.483Z,94984.13
2022-10-17T14:12:08.716Z,94987.34
2022-10-17T14:14:58.025Z,94984.81
2022-10-17T14:17:28.283Z,94988.88
2022-10-17T14:20:14.217Z,94992.84
2022-10-17T14:22:54.392Z,94995.03
2022-10-17T14:25:31.433Z,94996.13
2022-10-17T14:28:09.320Z,94991.63
2022-10-17T14:30:55.644Z,94993.91
2022-10-17T14:33:30.684Z,95000.28
2022-10-17T14:36:00.007Z,94998.47
2022-10-17T14:38:28.586Z,95000.19
2022-10-17T14:41:29.632Z,94997.34
2022-10-17T14:43:58.359Z,95002.88
2022-10-17T14:46:25.556Z,95004.59
2022-10-17T14:48:59.216Z,95009.25
2022-10-17T14:51:26.063Z,95009.63
2022-10-17T14:54:26.388Z,95009.38
2022-10-17T14:56:56.381Z,95016.28
2022-10-17T14:59:52.158Z,95019.91
2022-10-17T15:02:12.051Z,95030.78
2022-10-17T15:04:38.867Z,95035.38
2022-10-17T15:07:05.691Z,95024.81
2022-10-17T15:09:32.820Z,95027.59
2022-10-17T15:12:04.687Z,95031.97
2022-10-17T15:14:31.500Z,95037.78
2022-10-17T15:16:58.364Z,95029.91
2022-10-17T15:19:27.297Z,95031.63
2022-10-17T15:21:54.135Z,95033.53
2022-10-17T15:24:20.960Z,95032.19
2022-10-17T15:26:47.913Z,95039.19
2022-10-17T15:29:16.155Z,95037.28
2022-10-17T15:31:42.886Z,95041.38
2022-10-17T15:34:09.632Z,95048.06
2022-10-17T15:36:40.355Z,95041.94
2022-10-17T15:39:07.328Z,95046.81
2022-10-17T15:41:52.880Z,95045.63
2022-10-17T15:44:19.863Z,95049.19
2022-10-17T15:46:46.754Z,95050.88
2022-10-17T15:49:15.070Z,95055.28
2022-10-17T15:51:41.725Z,95051.06
2022-10-17T15:54:10.737Z,95055.44
2022-10-17T15:56:40.077Z,95048.66
2022-10-17T15:59:12.965Z,95054.66
2022-10-17T16:01:40.377Z,95060.66
2022-10-17T16:04:14.818Z,95062.47
2022-10-17T16:06:42.713Z,95065.34
2022-10-17T16:09:10.185Z,95068.88
2022-10-17T16:11:42.116Z,95074.75
2022-10-17T16:14:14.236Z,95078.81
2022-10-17T16:16:41.523Z,95083.72
2022-10-17T16:19:08.779Z,95084.41
2022-10-17T16:21:40.650Z,95087.53
2022-10-17T16:24:11.340Z,95092.81
2022-10-17T16:26:43.100Z,95092.09
2022-10-17T16:29:10.345Z,95092.50
2022-10-17T16:31:41.184Z,95093.31
2022-10-17T16:34:11.718Z,95094.06
2022-10-17T16:36:39.119Z,95100.41
2022-10-17T16:39:06.638Z,95105.84
2022-10-17T16:41:38.337Z,95102.84
2022-10-17T16:44:07.105Z,95100.47
2022-10-17T16:46:36.557Z,95105.47
2022-10-17T16:49:05.259Z,95101.53
2022-10-17T16:51:33.797Z,95109.94
2022-10-17T16:54:00.717Z,95102.47
2022-10-17T16:56:32.767Z,95108.00
2022-10-17T16:59:00.570Z,95109.19
2022-10-17T17:01:29.862Z,95121.94
2022-10-17T17:03:57.078Z,95120.94
2022-10-17T17:06:26.863Z,95116.00
2022-10-17T17:08:54.800Z,95120.16
2022-10-17T17:11:23.730Z,95121.56
2022-10-17T17:13:50.860Z,95122.66
2022-10-17T17:16:22.376Z,95125.38
2022-10-17T17:18:52.022Z,95123.59
2022-10-17T17:21:18.899Z,95120.91
2022-10-17T17:23:45.705Z,95128.06
2022-10-17T17:26:15.155Z,95128.69
2022-10-17T17:28:42.971Z,95135.09
2022-10-17T17:31:12.075Z,95137.28
2022-10-17T17:33:39.676Z,95132.97
2022-10-17T17:36:07.268Z,95140.63
2022-10-17T17:38:35.419Z,95136.56
2022-10-17T17:41:02.883Z,95144.47
2022-10-17T17:43:30.172Z,95146.31
2022-10-17T17:45:56.975Z,95151.19
2022-10-17T17:48:24.771Z,95146.31
2022-10-17T17:50:51.706Z,95148.47
2022-10-17T17:53:18.948Z,95146.75
2022-10-17T17:55:45.728Z,95146.63
2022-10-17T17:58:12.645Z,95152.13
2022-10-17T18:00:40.902Z,95146.31
2022-10-17T18:03:08.193Z,95155.91
2022-10-17T18:05:35.406Z,95155.28
2022-10-17T18:08:06.583Z,95155.97
2022-10-17T18:10:38.851Z,95150.53
2022-10-17T18:13:05.896Z,95148.19
2022-10-17T18:15:32.881Z,95156.03
2022-10-17T18:18:00.181Z,95151.84
2022-10-17T18:20:29.822Z,95152.34
2022-10-17T18:23:01.930Z,95155.06
2022-10-17T18:25:31.175Z,95153.72
2022-10-17T18:27:58.161Z,95157.94
2022-10-17T18:30:27.285Z,95153.28
2022-10-17T18:32:55.936Z,95154.94
2022-10-17T18:35:23.319Z,95162.00
2022-10-17T18:37:50.564Z,95161.78
2022-10-17T18:40:18.923Z,95156.75
2022-10-17T18:42:48.155Z,95157.81
2022-10-17T18:45:15.830Z,95158.28
2022-10-17T18:47:52.700Z,95152.94
2022-10-17T18:50:20.700Z,95160.97
2022-10-17T18:52:50.887Z,95152.91
2022-10-17T18:55:20.555Z,95160.25
2022-10-17T18:57:49.330Z,95157.56
2022-10-17T19:00:19.240Z,95163.97
2022-10-17T19:02:46.070Z,95161.16
2022-10-17T19:05:12.869Z,95162.91
2022-10-17T19:07:39.694Z,95172.25
2022-10-17T19:10:06.822Z,95174.22
2022-10-17T19:12:33.829Z,95174.69
2022-10-17T19:15:00.624Z,95181.84
2022-10-17T19:17:27.684Z,95178.94
2022-10-17T19:19:55.221Z,95182.44
2022-10-17T19:22:22.080Z,95180.09
2022-10-17T19:24:51.248Z,95179.97
2022-10-17T19:27:20.311Z,95185.31
2022-10-17T19:29:47.089Z,95179.47
2022-10-17T19:32:16.768Z,95172.13
2022-10-17T19:34:46.038Z,95177.19
2022-10-17T19:37:13.005Z,95173.06
2022-10-17T19:39:39.812Z,95175.44
2022-10-17T19:42:07.144Z,95185.19
2022-10-17T19:44:37.005Z,95170.06
2022-10-17T19:47:03.970Z,95177.97
2022-10-17T19:49:30.871Z,95177.56
2022-10-17T19:51:57.795Z,95173.31
2022-10-17T19:54:24.658Z,95180.81
2022-10-17T19:56:53.927Z,95179.91
2022-10-17T19:59:20.904Z,95179.78
2022-10-17T20:01:48.005Z,95188.38
2022-10-17T20:04:17.735Z,95191.84
2022-10-17T20:06:48.856Z,95191.97
2022-10-17T20:09:17.675Z,95195.78
2022-10-17T20:11:47.216Z,95192.47
2022-10-17T20:14:14.231Z,95193.53
2022-10-17T20:16:41.168Z,95196.25
2022-10-17T20:19:10.697Z,95200.03
2022-10-17T20:21:39.742Z,95196.47
2022-10-17T20:24:08.184Z,95193.41
2022-10-17T20:26:39.609Z,95180.72
2022-10-17T20:29:17.838Z,95190.94
2022-10-17T20:31:47.627Z,95182.66
2022-10-17T20:34:17.038Z,95183.59
2022-10-17T20:36:49.466Z,95176.00
2022-10-17T20:39:20.301Z,95171.72
2022-10-17T20:41:52.298Z,95172.13
2022-10-17T20:44:19.123Z,95170.78
2022-10-17T20:47:00.653Z,95162.09
2022-10-17T20:49:30.578Z,95160.56
2022-10-17T20:52:00.171Z,95160.66
2022-10-17T20:54:28.420Z,95170.47
2022-10-17T20:56:55.319Z,95166.16
2022-10-17T20:59:22.174Z,95168.72
2022-10-17T21:01:49.081Z,95175.28
2022-10-17T21:04:44.339Z,95172.53
2022-10-17T21:07:02.716Z,95173.44
2022-10-17T21:09:29.640Z,95176.16
2022-10-17T21:11:56.967Z,95165.63
2022-10-17T21:14:24.974Z,95171.34
2022-10-17T21:16:52.362Z,95161.78
2022-10-17T21:19:19.373Z,95157.38
2022-10-17T21:21:46.681Z,95166.75
2022-10-17T21:24:16.917Z,95163.09
2022-10-17T21:26:45.116Z,95166.34
2022-10-17T21:29:13.203Z,95162.59
2022-10-17T21:31:42.324Z,95164.41
2022-10-17T21:34:14.734Z,95165.25
2022-10-17T21:36:41.906Z,95163.00
2022-10-17T21:39:10.244Z,95164.22
2022-10-17T21:41:37.250Z,95155.63
2022-10-17T21:44:07.112Z,95165.41
2022-10-17T21:46:34.209Z,95167.34
2022-10-17T21:49:01.636Z,95165.00
2022-10-17T21:51:28.781Z,95162.78
2022-10-17T21:53:57.632Z,95164.31
2022-10-17T21:56:31.163Z,95160.94
2022-10-17T21:58:58.872Z,95159.91
2022-10-17T22:01:28.258Z,95162.59
2022-10-17T22:03:57.754Z,95159.78
2022-10-17T22:06:44.773Z,95162.63
2022-10-17T22:09:14.520Z,95156.84
2022-10-17T22:11:42.307Z,95160.00
2022-10-17T22:14:13.009Z,95149.88
2022-10-17T22:16:40.384Z,95156.31
2022-10-17T22:19:08.412Z,95156.97
2022-10-17T22:21:36.711Z,95156.31
2022-10-17T22:24:06.404Z,95157.22
2022-10-17T22:26:35.177Z,95157.22
2022-10-17T22:29:02.182Z,95161.41
2022-10-17T22:31:29.090Z,95159.03
2022-10-17T22:33:56.053Z,95156.16
2022-10-17T22:36:23.077Z,95156.38
2022-10-17T22:38:49.948Z,95162.19
2022-10-17T22:41:17.054Z,95163.13
2022-10-17T22:43:44.403Z,95162.91
2022-10-17T22:46:13.093Z,95157.50
2022-10-17T22:48:40.414Z,95158.28
2022-10-17T22:51:07.401Z,95165.31
2022-10-17T22:53:35.250Z,95161.66
2022-10-17T22:56:03.405Z,95156.78
2022-10-17T22:58:31.869Z,95156.03
2022-10-17T23:00:58.977Z,95156.25
2022-10-17T23:03:27.712Z,95153.19
2022-10-17T23:05:54.750Z,95161.59
2022-10-17T23:08:21.569Z,95149.13
2022-10-17T23:10:48.561Z,95152.25
2022-10-17T23:13:18.871Z,95157.34
2022-10-17T23:15:46.021Z,95151.81
2022-10-17T23:18:12.928Z,95148.91
2022-10-17T23:20:39.665Z,95156.75
2022-10-17T23:23:06.676Z,95152.56
2022-10-17T23:25:34.643Z,95157.97
2022-10-17T23:28:02.019Z,95151.84
2022-10-17T23:30:29.179Z,95151.22
2022-10-17T23:32:55.932Z,95152.22
2022-10-17T23:35:23.166Z,95151.66
2022-10-17T23:37:49.971Z,95148.50
2022-10-17T23:40:16.926Z,95147.88
2022-10-17T23:42:43.815Z,95145.69
2022-10-17T23:45:11.168Z,95141.25
2022-10-17T23:47:37.975Z,95138.34
2022-10-17T23:50:05.688Z,95140.44
2022-10-17T23:52:32.800Z,95137.25
2022-10-17T23:54:59.627Z,95137.25
2022-10-17T23:57:26.487Z,95138.06
2022-10-17T23:59:53.266Z,95135.81
